createdAt,value
2019-01-19T00:00:55.757Z,-19.69
2019-01-19T00:04:04.167Z,-19.69
2019-01-19T00:07:12.031Z,-19.70
2019-01-19T00:10:27.094Z,-19.82
2019-01-19T00:13:20.807Z,-19.98
2019-01-19T00:16:29.802Z,-20.08
2019-01-19T00:19:37.548Z,-20.08
2019-01-19T00:22:45.744Z,-20.09
2019-01-19T00:25:53.125Z,-20.10
2019-01-19T00:32:04.739Z,-20.28
2019-01-19T00:35:17.737Z,-20.31
2019-01-19T00:38:06.394Z,-20.31
2019-01-19T00:44:15.882Z,-20.51
2019-01-19T00:47:20.492Z,-20.47
2019-01-19T00:50:12.274Z,-20.48
2019-01-19T00:53:20.389Z,-20.46
2019-01-19T00:56:14.592Z,-20.48
2019-01-19T00:59:05.825Z,-20.48
2019-01-19T01:02:13.243Z,-20.55
2019-01-19T01:05:04.689Z,-20.63
2019-01-19T01:08:12.452Z,-20.68
2019-01-19T01:11:08.216Z,-20.68
2019-01-19T01:14:32.454Z,-20.70
2019-01-19T01:17:40.376Z,-20.70
2019-01-19T01:24:08.021Z,-20.83
2019-01-19T01:27:15.754Z,-20.99
2019-01-19T01:30:23.098Z,-21.08
2019-01-19T01:33:35.227Z,-21.05
2019-01-19T01:36:17.235Z,-21.03
2019-01-19T01:39:25.448Z,-21.12
2019-01-19T01:42:33.287Z,-21.19
2019-01-19T01:45:41.297Z,-21.21
2019-01-19T01:48:48.639Z,-21.21
2019-01-19T01:54:58.041Z,-21.27
2019-01-19T01:58:05.747Z,-21.18
2019-01-19T02:01:26.447Z,-21.13
2019-01-19T02:07:53.372Z,-21.11
2019-01-19T02:11:01.473Z,-21.11
2019-01-19T02:14:09.201Z,-21.13
2019-01-19T02:17:16.935Z,-21.10
2019-01-19T02:20:24.329Z,-21.13
2019-01-19T02:23:32.136Z,-21.12
2019-01-19T02:26:31.036Z,-21.14
2019-01-19T02:33:04.707Z,-21.12
2019-01-19T02:36:16.824Z,-21.06
2019-01-19T02:39:30.022Z,-20.97
2019-01-19T02:42:39.325Z,-20.96
2019-01-19T02:45:33.885Z,-20.93
2019-01-19T02:48:43.168Z,-20.91
2019-01-19T02:51:51.773Z,-20.97
2019-01-19T02:58:22.670Z,-21.03
2019-01-19T03:04:32.782Z,-21.14
2019-01-19T03:07:40.183Z,-21.23
2019-01-19T03:10:33.780Z,-21.15
2019-01-19T03:13:41.514Z,-21.12
2019-01-19T03:16:47.135Z,-21.14
2019-01-19T03:19:54.957Z,-21.19
2019-01-19T03:23:03.058Z,-21.14
2019-01-19T03:26:09.538Z,-21.09
2019-01-19T03:29:18.727Z,-21.10
2019-01-19T03:32:26.512Z,-21.12
2019-01-19T03:35:21.615Z,-21.10
2019-01-19T03:38:29.435Z,-21.10
2019-01-19T03:41:37.710Z,-21.15
2019-01-19T03:44:45.056Z,-21.20
2019-01-19T03:47:46.910Z,-21.17
2019-01-19T03:50:54.669Z,-21.19
2019-01-19T03:54:02.077Z,-21.18
2019-01-19T03:57:10.615Z,-21.16
2019-01-19T04:00:37.200Z,-21.16
2019-01-19T04:03:44.937Z,-21.18
2019-01-19T04:06:52.959Z,-21.32
2019-01-19T04:10:00.763Z,-21.37
2019-01-19T04:13:03.015Z,-21.35
2019-01-19T04:16:10.422Z,-21.34
2019-01-19T04:19:18.119Z,-21.31
2019-01-19T04:25:12.871Z,-21.35
2019-01-19T04:36:43.809Z,-21.41
2019-01-19T04:42:38.986Z,-21.42
2019-01-19T04:45:08.509Z,-21.44
2019-01-19T04:47:39.404Z,-21.55
2019-01-19T04:50:09.932Z,-21.53
2019-01-19T04:52:58.915Z,-21.51
2019-01-19T04:55:30.180Z,-21.52
2019-01-19T04:58:02.143Z,-21.58
2019-01-19T05:00:32.314Z,-21.57
2019-01-19T05:03:43.635Z,-21.59
2019-01-19T05:12:26.748Z,-21.63
2019-01-19T05:18:22.977Z,-21.63
2019-01-19T05:24:26.947Z,-21.77
2019-01-19T05:29:58.800Z,-21.74
2019-01-19T05:35:39.923Z,-21.74
2019-01-19T05:47:32.906Z,-21.90
2019-01-19T05:50:44.713Z,-21.90
2019-01-19T05:53:14.229Z,-21.95
2019-01-19T05:55:43.635Z,-22.00
2019-01-19T05:58:16.284Z,-22.07
2019-01-19T06:01:26.066Z,-22.14
2019-01-19T06:07:10.394Z,-22.13
2019-01-19T06:09:39.931Z,-22.23
2019-01-19T06:12:09.368Z,-22.23
2019-01-19T06:14:38.866Z,-22.24
2019-01-19T06:17:08.394Z,-22.24
2019-01-19T06:23:05.731Z,-22.18
2019-01-19T06:25:35.313Z,-22.12
2019-01-19T06:28:04.713Z,-22.11
2019-01-19T06:30:34.130Z,-22.10
2019-01-19T06:33:03.983Z,-22.13
2019-01-19T06:35:33.795Z,-22.11
2019-01-19T06:38:03.743Z,-22.13
2019-01-19T06:40:34.861Z,-22.15
2019-01-19T06:43:04.347Z,-22.20
2019-01-19T06:45:33.873Z,-22.27
2019-01-19T06:48:03.593Z,-22.34
2019-01-19T06:57:08.000Z,-22.33
2019-01-19T07:02:47.873Z,-22.47
2019-01-19T07:05:17.533Z,-22.43
2019-01-19T07:07:47.124Z,-22.47
2019-01-19T07:10:36.976Z,-22.48
2019-01-19T07:19:22.574Z,-22.47
2019-01-19T07:21:52.264Z,-22.52
2019-01-19T07:27:17.967Z,-22.46
2019-01-19T07:29:47.523Z,-22.42
2019-01-19T07:35:23.357Z,-22.45
2019-01-19T07:41:08.189Z,-22.44
2019-01-19T07:44:17.191Z,-22.41
2019-01-19T07:47:26.824Z,-22.39
2019-01-19T07:49:56.383Z,-22.42
2019-01-19T07:52:26.766Z,-22.36
2019-01-19T07:54:56.207Z,-22.34
2019-01-19T07:57:31.206Z,-23.26
2019-01-19T07:59:57.969Z,-22.43
2019-01-19T08:02:27.652Z,-22.39
2019-01-19T08:04:57.280Z,-22.32
2019-01-19T08:07:26.967Z,-22.29
2019-01-19T08:09:56.683Z,-22.29
2019-01-19T08:12:47.101Z,-22.26
2019-01-19T08:15:57.064Z,-22.29
2019-01-19T08:21:21.406Z,-22.30
2019-01-19T08:23:50.784Z,-22.31
2019-01-19T08:26:59.556Z,-22.26
2019-01-19T08:32:32.987Z,-22.26
2019-01-19T08:35:06.377Z,-22.21
2019-01-19T08:37:35.873Z,-22.13
2019-01-19T08:40:08.351Z,-22.06
2019-01-19T08:42:38.085Z,-22.04
2019-01-19T08:45:08.406Z,-22.03
2019-01-19T08:47:37.873Z,-22.00
2019-01-19T08:50:08.891Z,-22.08
2019-01-19T08:52:38.513Z,-22.05
2019-01-19T08:55:08.614Z,-21.99
2019-01-19T08:57:38.216Z,-21.90
2019-01-19T09:00:11.921Z,-21.80
2019-01-19T09:02:41.939Z,-21.79
2019-01-19T09:05:11.648Z,-21.75
2019-01-19T09:07:41.460Z,-21.68
2019-01-19T09:10:13.246Z,-21.62
2019-01-19T09:12:42.706Z,-21.55
2019-01-19T09:15:14.155Z,-21.52
2019-01-19T09:17:43.874Z,-21.44
2019-01-19T09:20:16.792Z,-21.34
2019-01-19T09:22:48.070Z,-21.28
2019-01-19T09:25:18.030Z,-21.21
2019-01-19T09:27:47.601Z,-21.28
2019-01-19T09:30:19.209Z,-21.28
2019-01-19T09:32:49.377Z,-21.30
2019-01-19T09:35:19.053Z,-21.23
2019-01-19T09:37:49.572Z,-22.12
2019-01-19T09:40:19.239Z,-21.19
2019-01-19T09:42:49.072Z,-21.15
2019-01-19T09:45:19.199Z,-21.11
2019-01-19T09:47:48.634Z,-21.14
2019-01-19T09:50:19.327Z,-21.13
2019-01-19T09:52:49.036Z,-21.09
2019-01-19T09:55:19.586Z,-21.01
2019-01-19T09:57:51.625Z,-20.90
2019-01-19T10:03:16.620Z,-20.71
2019-01-19T10:09:34.404Z,-20.58
2019-01-19T10:12:06.386Z,-20.49
2019-01-19T10:14:35.784Z,-20.38
2019-01-19T10:20:32.229Z,-20.19
2019-01-19T10:23:41.172Z,-20.08
2019-01-19T10:26:10.608Z,-20.01
2019-01-19T10:28:41.462Z,-19.91
2019-01-19T10:31:11.347Z,-19.85
2019-01-19T10:33:41.299Z,-19.83
2019-01-19T10:36:10.797Z,-19.66
2019-01-19T10:38:40.736Z,-19.57
2019-01-19T10:41:10.523Z,-19.47
2019-01-19T10:43:39.950Z,-19.32
2019-01-19T10:46:09.629Z,-19.18
2019-01-19T10:48:39.960Z,-19.13
2019-01-19T10:51:09.433Z,-19.04
2019-01-19T10:53:38.848Z,-19.10
2019-01-19T10:56:08.341Z,-19.17
2019-01-19T10:58:37.783Z,-19.18
2019-01-19T11:01:07.330Z,-19.08
2019-01-19T11:03:36.829Z,-18.94
2019-01-19T11:06:10.317Z,-18.82
2019-01-19T11:08:39.872Z,-18.68
2019-01-19T11:11:09.303Z,-18.59
2019-01-19T11:13:39.137Z,-18.62
2019-01-19T11:16:08.843Z,-18.59
2019-01-19T11:18:38.550Z,-18.55
2019-01-19T11:21:08.083Z,-18.36
2019-01-19T11:23:39.859Z,-18.23
2019-01-19T11:26:12.255Z,-18.23
2019-01-19T11:28:41.834Z,-18.15
2019-01-19T11:31:11.423Z,-18.09
2019-01-19T11:33:44.599Z,-18.10
2019-01-19T11:36:14.328Z,-18.09
2019-01-19T11:38:44.001Z,-18.07
2019-01-19T11:41:13.468Z,-17.94
2019-01-19T11:43:42.919Z,-17.86
2019-01-19T11:46:12.466Z,-17.81
2019-01-19T11:48:44.362Z,-17.78
2019-01-19T11:51:13.859Z,-17.75
2019-01-19T11:53:43.267Z,-17.70
2019-01-19T11:56:15.133Z,-17.60
2019-01-19T11:58:44.576Z,-17.54
2019-01-19T12:01:13.997Z,-17.49
2019-01-19T12:03:43.522Z,-17.46
2019-01-19T12:06:13.053Z,-17.43
2019-01-19T12:08:42.608Z,-17.43
2019-01-19T12:11:13.228Z,-17.47
2019-01-19T12:13:42.709Z,-17.47
2019-01-19T12:16:12.981Z,-17.49
2019-01-19T12:18:42.599Z,-17.48
2019-01-19T12:21:12.137Z,-17.53
2019-01-19T12:26:55.728Z,-17.64
2019-01-19T12:30:04.627Z,-17.69
2019-01-19T12:33:15.754Z,-17.71
2019-01-19T12:41:47.291Z,-17.85
2019-01-19T12:44:56.232Z,-17.94
2019-01-19T12:48:05.379Z,-18.06
2019-01-19T12:53:36.443Z,-18.16
2019-01-19T12:56:45.130Z,-18.19
2019-01-19T13:02:10.270Z,-18.28
2019-01-19T13:04:39.799Z,-18.31
2019-01-19T13:07:15.006Z,-18.33
2019-01-19T13:09:48.153Z,-18.34
2019-01-19T13:12:39.885Z,-18.37
2019-01-19T13:15:47.714Z,-18.39
2019-01-19T13:18:55.284Z,-18.40
2019-01-19T13:22:02.674Z,-18.40
2019-01-19T13:25:10.092Z,-18.43
2019-01-19T13:28:06.807Z,-18.52
2019-01-19T13:31:14.670Z,-18.58
2019-01-19T13:34:22.374Z,-18.63
2019-01-19T13:37:30.217Z,-18.70
2019-01-19T13:40:37.998Z,-18.76
2019-01-19T13:47:06.339Z,-18.90
2019-01-19T13:50:14.362Z,-18.98
2019-01-19T13:53:08.936Z,-20.25
2019-01-19T13:56:11.943Z,-19.12
2019-01-19T13:58:48.916Z,-19.20
2019-01-19T14:01:58.109Z,-19.24
2019-01-19T14:04:39.136Z,-19.20
2019-01-19T14:07:32.701Z,-19.24
2019-01-19T14:11:03.919Z,-19.26
2019-01-19T14:14:18.330Z,-19.34
2019-01-19T14:17:25.849Z,-19.33
2019-01-19T14:20:04.858Z,-19.37
2019-01-19T14:23:10.004Z,-19.39
2019-01-19T14:26:17.303Z,-19.41
2019-01-19T14:29:30.677Z,-19.48
2019-01-19T14:32:37.302Z,-19.52
2019-01-19T14:35:45.804Z,-19.49
2019-01-19T14:38:56.796Z,-19.49
2019-01-19T14:42:24.113Z,-19.47
2019-01-19T14:45:29.779Z,-19.48
2019-01-19T14:49:04.540Z,-19.48
2019-01-19T14:52:15.075Z,-19.49
2019-01-19T14:55:01.695Z,-19.49
2019-01-19T14:57:56.295Z,-19.48
2019-01-19T15:01:08.604Z,-19.52
2019-01-19T15:04:21.995Z,-19.52
2019-01-19T15:07:24.438Z,-19.59
2019-01-19T15:10:14.399Z,-19.66
2019-01-19T15:13:16.716Z,-19.65
2019-01-19T15:16:24.188Z,-19.60
2019-01-19T15:19:37.898Z,-19.60
2019-01-19T15:22:28.022Z,-19.61
2019-01-19T15:25:36.734Z,-19.62
2019-01-19T15:29:08.132Z,-19.61
2019-01-19T15:32:24.971Z,-19.67
2019-01-19T15:35:42.053Z,-19.65
2019-01-19T15:38:49.710Z,-19.66
2019-01-19T15:42:05.430Z,-19.78
2019-01-19T15:45:18.631Z,-19.78
2019-01-19T15:48:31.848Z,-19.77
2019-01-19T15:51:37.980Z,-19.79
2019-01-19T15:54:25.483Z,-19.78
2019-01-19T15:57:33.379Z,-19.74
2019-01-19T16:00:14.432Z,-19.72
2019-01-19T16:06:50.142Z,-19.83
2019-01-19T16:10:00.586Z,-19.90
2019-01-19T16:13:08.501Z,-19.94
2019-01-19T16:16:16.631Z,-19.90
2019-01-19T16:19:24.877Z,-19.90
2019-01-19T16:22:32.695Z,-20.03
2019-01-19T16:25:40.519Z,-19.99
2019-01-19T16:28:48.307Z,-19.91
2019-01-19T16:35:04.468Z,-19.83
2019-01-19T16:38:02.928Z,-19.75
2019-01-19T16:40:54.493Z,-19.74
2019-01-19T16:44:09.534Z,-19.75
2019-01-19T16:47:22.978Z,-19.74
2019-01-19T16:50:19.018Z,-19.79
2019-01-19T16:53:22.832Z,-19.80
2019-01-19T16:56:20.412Z,-19.85
2019-01-19T16:59:16.102Z,-19.89
2019-01-19T17:02:34.679Z,-19.94
2019-01-19T17:05:45.118Z,-19.99
2019-01-19T17:08:46.634Z,-20.09
2019-01-19T17:12:06.188Z,-20.14
2019-01-19T17:15:13.895Z,-20.18
2019-01-19T17:18:13.241Z,-20.25
2019-01-19T17:21:12.449Z,-20.26
2019-01-19T17:24:11.190Z,-21.20
2019-01-19T17:27:19.413Z,-20.32
2019-01-19T17:30:27.676Z,-20.41
2019-01-19T17:36:56.646Z,-20.41
2019-01-19T17:40:06.195Z,-20.41
2019-01-19T17:43:13.318Z,-20.39
2019-01-19T17:46:19.531Z,-20.43
2019-01-19T17:49:14.764Z,-20.46
2019-01-19T17:52:23.348Z,-20.48
2019-01-19T17:55:51.433Z,-20.46
2019-01-19T17:59:09.485Z,-20.49
2019-01-19T18:02:15.565Z,-20.59
2019-01-19T18:05:09.818Z,-20.61
2019-01-19T18:08:23.127Z,-20.61
2019-01-19T18:11:21.387Z,-20.66
2019-01-19T18:14:24.444Z,-20.66
2019-01-19T18:17:41.218Z,-20.86
2019-01-19T18:21:03.234Z,-20.87
2019-01-19T18:24:02.511Z,-20.79
2019-01-19T18:27:40.086Z,-20.70
2019-01-19T18:30:44.610Z,-20.75
2019-01-19T18:33:43.095Z,-20.71
2019-01-19T18:36:34.872Z,-20.62
2019-01-19T18:39:45.186Z,-20.53
2019-01-19T18:42:50.310Z,-20.48
2019-01-19T18:45:58.349Z,-20.42
2019-01-19T18:52:27.566Z,-20.30
2019-01-19T18:55:35.107Z,-20.28
2019-01-19T18:59:57.049Z,-20.29
2019-01-19T19:03:04.644Z,-20.34
2019-01-19T19:05:59.974Z,-20.36
2019-01-19T19:08:41.629Z,-20.36
2019-01-19T19:11:51.280Z,-20.38
2019-01-19T19:14:39.072Z,-20.43
2019-01-19T19:18:04.797Z,-20.45
2019-01-19T19:21:19.171Z,-20.47
2019-01-19T19:24:41.686Z,-20.48
2019-01-19T19:27:46.355Z,-20.51
2019-01-19T19:30:43.043Z,-20.59
2019-01-19T19:33:59.842Z,-20.60
2019-01-19T19:36:49.996Z,-20.62
2019-01-19T19:40:27.904Z,-20.70
2019-01-19T19:43:47.654Z,-20.72
2019-01-19T19:47:10.545Z,-20.75
2019-01-19T19:50:08.287Z,-20.77
2019-01-19T19:52:38.175Z,-20.82
2019-01-19T19:55:06.030Z,-20.88
2019-01-19T19:57:35.886Z,-20.96
2019-01-19T20:00:07.378Z,-20.98
2019-01-19T20:02:39.562Z,-21.09
2019-01-19T20:05:09.808Z,-21.15
2019-01-19T20:07:39.768Z,-21.23
2019-01-19T20:10:16.949Z,-21.26
2019-01-19T20:15:57.610Z,-21.31
2019-01-19T20:19:07.600Z,-21.35
2019-01-19T20:21:38.024Z,-21.35
2019-01-19T20:24:08.427Z,-21.39
2019-01-19T20:26:38.137Z,-21.42
2019-01-19T20:29:08.598Z,-21.44
2019-01-19T20:31:38.994Z,-21.45
2019-01-19T20:34:09.221Z,-21.48
2019-01-19T20:36:39.910Z,-21.51
2019-01-19T20:39:10.980Z,-21.53
2019-01-19T20:41:40.866Z,-21.60
2019-01-19T20:44:11.862Z,-21.62
2019-01-19T20:46:41.841Z,-21.64
2019-01-19T20:49:11.678Z,-21.66
2019-01-19T20:51:42.006Z,-21.70
2019-01-19T20:54:11.894Z,-21.82
2019-01-19T20:56:44.031Z,-21.85
2019-01-19T20:59:13.919Z,-21.88
2019-01-19T21:01:44.546Z,-21.85
2019-01-19T21:04:15.940Z,-21.85
2019-01-19T21:06:46.640Z,-21.84
2019-01-19T21:09:16.644Z,-21.92
2019-01-19T21:11:46.608Z,-21.92
2019-01-19T21:14:16.501Z,-21.93
2019-01-19T21:16:46.296Z,-21.99
2019-01-19T21:19:17.248Z,-22.04
2019-01-19T21:21:47.421Z,-22.06
2019-01-19T21:24:17.696Z,-22.06
2019-01-19T21:26:47.490Z,-22.02
2019-01-19T21:29:17.957Z,-21.94
2019-01-19T21:31:48.214Z,-21.86
2019-01-19T21:34:18.184Z,-21.81
2019-01-19T21:36:48.531Z,-21.69
2019-01-19T21:39:19.848Z,-21.70
2019-01-19T21:41:49.535Z,-21.62
2019-01-19T21:44:19.357Z,-21.57
2019-01-19T21:46:49.037Z,-21.55
2019-01-19T21:49:19.261Z,-21.57
2019-01-19T21:51:48.955Z,-21.62
2019-01-19T21:54:18.671Z,-21.66
2019-01-19T21:56:51.164Z,-21.70
2019-01-19T21:59:20.885Z,-21.78
2019-01-19T22:01:50.459Z,-21.82
2019-01-19T22:04:20.020Z,-21.80
2019-01-19T22:06:49.601Z,-21.68
2019-01-19T22:09:19.187Z,-21.67
2019-01-19T22:11:49.620Z,-21.66
2019-01-19T22:14:19.814Z,-21.63
2019-01-19T22:16:49.943Z,-21.58
2019-01-19T22:19:20.654Z,-21.68
2019-01-19T22:21:50.139Z,-21.77
2019-01-19T22:24:20.591Z,-21.80
2019-01-19T22:26:52.482Z,-21.80
2019-01-19T22:29:22.141Z,-21.81
2019-01-19T22:31:52.024Z,-21.80
2019-01-19T22:34:21.719Z,-21.79
2019-01-19T22:36:51.752Z,-21.81
2019-01-19T22:39:21.955Z,-21.82
2019-01-19T22:41:51.844Z,-21.86
2019-01-19T22:44:24.399Z,-21.90
2019-01-19T22:46:53.768Z,-21.97
2019-01-19T22:49:23.660Z,-22.15
2019-01-19T22:51:53.311Z,-22.20
2019-01-19T22:54:22.997Z,-22.33
2019-01-19T22:56:52.483Z,-22.43
2019-01-19T22:59:22.016Z,-22.39
2019-01-19T23:02:04.741Z,-22.36
2019-01-19T23:04:35.215Z,-22.33
2019-01-19T23:07:05.125Z,-22.27
2019-01-19T23:09:34.532Z,-22.25
2019-01-19T23:12:04.185Z,-22.24
2019-01-19T23:14:34.040Z,-22.25
2019-01-19T23:17:03.579Z,-22.23
2019-01-19T23:19:33.318Z,-22.19
2019-01-19T23:22:02.844Z,-22.14
2019-01-19T23:24:32.344Z,-22.04
2019-01-19T23:27:07.318Z,-22.02
2019-01-19T23:29:37.838Z,-21.90
2019-01-19T23:32:07.854Z,-21.52
2019-01-19T23:34:37.638Z,-21.33
2019-01-19T23:37:07.787Z,-21.04
2019-01-19T23:39:37.293Z,-20.74
2019-01-19T23:42:07.453Z,-20.61
2019-01-19T23:44:37.375Z,-20.47
2019-01-19T23:47:07.110Z,-20.34
2019-01-19T23:49:37.304Z,-20.14
2019-01-19T23:52:06.957Z,-19.68
2019-01-19T23:54:38.631Z,-19.48
2019-01-19T23:57:08.896Z,-19.43
2019-01-19T23:59:38.343Z,-19.47
